Terminal Aerodrome Forecast
Issued by NWS

Home | Current Version | Previous Version | Graphics & Text | Print | Product List | Glossary On
Versions: 1 2 3 4 5 6 7 8 9 10 11 12
000
FTUS42 KMHX 271141
TAFISO
TAF
KISO 271141Z 2712/2812 02005KT P6SM VCTS SCT010 BKN025 OVC040CB
     FM271700 04010KT P6SM VCSH SCT025 BKN040
     FM280800 VRB03KT 5SM BR SCT010
      AMD LTD TO CLD VIS AND WIND=

USA.gov is the U.S. government's official web portal to all federal, state and local government web resources and services.